createdAt,value
2023-03-17T00:02:21.298Z,5.27
2023-03-17T00:06:29.390Z,5.20
2023-03-17T00:10:33.900Z,5.93
2023-03-17T00:14:37.293Z,5.73
2023-03-17T00:18:40.687Z,5.00
2023-03-17T00:22:44.636Z,4.87
2023-03-17T00:26:49.070Z,5.47
2023-03-17T00:30:55.774Z,6.53
2023-03-17T00:34:58.908Z,4.20
2023-03-17T00:39:02.107Z,3.53
2023-03-17T00:43:08.298Z,4.57
2023-03-17T00:47:13.241Z,3.30
2023-03-17T00:51:16.697Z,2.47
2023-03-17T00:55:19.960Z,4.80
2023-03-17T00:59:30.813Z,3.73
2023-03-17T01:03:34.467Z,4.77
2023-03-17T01:07:38.213Z,6.03
2023-03-17T01:11:42.202Z,5.30
2023-03-17T01:15:48.644Z,4.07
2023-03-17T01:19:51.862Z,4.23
2023-03-17T01:23:55.091Z,3.90
2023-03-17T01:28:00.299Z,5.00
2023-03-17T01:32:04.945Z,4.37
2023-03-17T01:36:08.750Z,4.47
2023-03-17T01:40:17.266Z,4.00
2023-03-17T01:44:20.688Z,4.87
2023-03-17T01:48:26.116Z,4.37
2023-03-17T01:52:30.379Z,5.20
2023-03-17T01:56:35.212Z,3.80
2023-03-17T02:00:41.914Z,4.00
2023-03-17T02:04:46.812Z,4.13
2023-03-17T02:08:49.871Z,4.70
2023-03-17T02:12:56.724Z,8.10
2023-03-17T02:17:00.295Z,4.17
2023-03-17T02:25:38.692Z,5.37
2023-03-17T02:29:42.578Z,6.07
2023-03-17T02:33:46.062Z,6.00
2023-03-17T02:37:49.083Z,5.30
2023-03-17T02:41:53.723Z,5.47
2023-03-17T02:45:56.846Z,5.83
2023-03-17T02:50:00.050Z,5.43
2023-03-17T02:54:03.283Z,7.17
2023-03-17T02:58:07.765Z,5.77
2023-03-17T03:02:11.564Z,6.90
2023-03-17T03:06:15.200Z,5.23
2023-03-17T03:10:18.924Z,6.40
2023-03-17T03:14:23.506Z,5.77
2023-03-17T03:18:26.753Z,6.53
2023-03-17T03:22:30.058Z,7.37
2023-03-17T03:26:33.150Z,7.97
2023-03-17T03:30:38.492Z,13.03
2023-03-17T03:34:41.652Z,9.23
2023-03-17T03:38:44.755Z,8.63
2023-03-17T03:42:48.278Z,7.50
2023-03-17T03:46:52.959Z,8.07
2023-03-17T03:50:58.124Z,7.00
2023-03-17T03:55:01.308Z,10.03
2023-03-17T03:59:04.477Z,7.80
2023-03-17T04:03:08.954Z,9.13
2023-03-17T04:07:12.575Z,7.37
2023-03-17T04:11:16.716Z,7.00
2023-03-17T04:15:21.168Z,8.80
2023-03-17T04:19:25.668Z,7.30
2023-03-17T04:23:28.956Z,8.17
2023-03-17T04:27:32.354Z,7.80
2023-03-17T04:31:35.486Z,8.03
2023-03-17T04:35:39.926Z,7.57
2023-03-17T04:39:43.014Z,8.47
2023-03-17T04:43:46.149Z,12.47
2023-03-17T04:47:49.307Z,10.53
2023-03-17T04:51:53.773Z,7.00
2023-03-17T04:55:57.702Z,10.47
2023-03-17T05:00:00.978Z,8.70
2023-03-17T05:04:04.385Z,8.17
2023-03-17T05:08:08.937Z,7.60
2023-03-17T05:12:12.488Z,7.63
2023-03-17T05:16:15.775Z,9.53
2023-03-17T05:20:18.918Z,8.00
2023-03-17T05:24:23.432Z,10.03
2023-03-17T05:28:26.787Z,9.70
2023-03-17T05:32:29.869Z,10.77
2023-03-17T05:36:33.538Z,10.50
2023-03-17T05:40:38.193Z,8.53
2023-03-17T05:44:41.251Z,9.83
2023-03-17T05:48:45.113Z,8.23
2023-03-17T05:52:49.209Z,8.00
2023-03-17T05:56:54.185Z,8.97
2023-03-17T06:00:57.517Z,7.20
2023-03-17T06:05:00.632Z,9.03
2023-03-17T06:09:05.793Z,9.40
2023-03-17T06:13:11.151Z,8.43
2023-03-17T06:17:14.572Z,6.60
2023-03-17T06:21:17.605Z,7.47
2023-03-17T06:25:20.955Z,6.27
2023-03-17T06:29:25.941Z,8.53
2023-03-17T06:33:29.964Z,6.37
2023-03-17T06:37:33.442Z,5.90
2023-03-17T06:41:36.734Z,6.50
2023-03-17T06:45:43.023Z,7.23
2023-03-17T06:49:46.535Z,5.70
2023-03-17T06:53:49.572Z,8.37
2023-03-17T06:57:52.795Z,7.47
2023-03-17T07:01:57.866Z,5.30
2023-03-17T07:06:01.723Z,6.70
2023-03-17T07:10:05.787Z,6.63
2023-03-17T07:14:09.054Z,5.40
2023-03-17T07:18:13.545Z,4.45
2023-03-17T07:22:16.591Z,7.40
2023-03-17T07:26:19.813Z,6.68
2023-03-17T07:30:22.894Z,7.00
2023-03-17T07:34:28.259Z,4.18
2023-03-17T07:38:31.421Z,4.07
2023-03-17T07:42:34.451Z,4.20
2023-03-17T07:46:38.771Z,4.18
2023-03-17T07:50:43.578Z,4.40
2023-03-17T07:54:46.687Z,7.25
2023-03-17T07:58:49.905Z,3.13
2023-03-17T08:03:07.094Z,3.58
2023-03-17T08:07:14.743Z,3.50
2023-03-17T08:11:18.928Z,3.85
2023-03-17T08:15:22.076Z,3.80
2023-03-17T08:19:25.669Z,7.78
2023-03-17T08:23:31.085Z,3.45
2023-03-17T08:27:34.336Z,4.10
2023-03-17T08:31:38.396Z,4.38
2023-03-17T08:35:42.780Z,4.43
2023-03-17T08:39:47.203Z,2.75
2023-03-17T08:43:51.683Z,5.18
2023-03-17T08:47:54.869Z,4.60
2023-03-17T08:51:57.995Z,3.78
2023-03-17T08:56:02.713Z,3.85
2023-03-17T09:00:11.118Z,4.75
2023-03-17T09:04:15.000Z,3.53
2023-03-17T09:08:18.121Z,4.18
2023-03-17T09:12:26.989Z,4.07
2023-03-17T09:16:33.920Z,7.60
2023-03-17T09:20:37.277Z,3.95
2023-03-17T09:24:40.551Z,4.97
2023-03-17T09:28:45.228Z,4.68
2023-03-17T09:32:48.558Z,5.43
2023-03-17T09:36:51.657Z,3.30
2023-03-17T09:40:59.850Z,4.45
2023-03-17T09:45:21.144Z,4.93
2023-03-17T09:49:30.586Z,4.95
2023-03-17T09:53:37.618Z,3.83
2023-03-17T09:57:41.631Z,7.60
2023-03-17T10:01:46.521Z,5.30
2023-03-17T10:05:49.770Z,3.75
2023-03-17T10:10:01.567Z,4.10
2023-03-17T10:14:12.341Z,5.50
2023-03-17T10:18:18.339Z,5.03
2023-03-17T10:22:26.455Z,4.78
2023-03-17T10:26:33.377Z,3.80
2023-03-17T10:30:36.636Z,7.28
2023-03-17T10:34:42.913Z,5.15
2023-03-17T10:38:54.221Z,5.82
2023-03-17T10:43:07.853Z,3.35
2023-03-17T10:47:24.183Z,3.58
2023-03-17T10:51:32.348Z,5.07
2023-03-17T10:55:42.586Z,5.15
2023-03-17T10:59:53.821Z,7.22
2023-03-17T11:03:57.506Z,4.22
2023-03-17T11:08:11.401Z,3.95
2023-03-17T11:12:25.566Z,4.72
2023-03-17T11:16:28.806Z,5.30
2023-03-17T11:20:52.533Z,9.18
2023-03-17T11:25:06.503Z,6.07
2023-03-17T11:29:22.608Z,6.10
2023-03-17T11:33:48.271Z,5.47
2023-03-17T11:38:14.060Z,5.18
2023-03-17T11:42:24.670Z,5.15
2023-03-17T11:46:31.485Z,5.03
2023-03-17T11:50:41.733Z,3.55
2023-03-17T11:54:54.167Z,4.32
2023-03-17T11:59:03.510Z,5.70
2023-03-17T12:03:17.684Z,4.50
2023-03-17T12:07:24.534Z,3.75
2023-03-17T12:11:30.352Z,5.72
2023-03-17T12:15:39.382Z,3.15
2023-03-17T12:19:47.162Z,4.57
2023-03-17T12:23:52.417Z,5.32
2023-03-17T12:28:02.053Z,4.25
2023-03-17T12:32:13.317Z,2.90
2023-03-17T12:36:18.851Z,5.90
2023-03-17T12:40:25.251Z,4.97
2023-03-17T12:44:41.695Z,3.80
2023-03-17T12:49:02.264Z,4.70
2023-03-17T12:53:20.329Z,4.40
2023-03-17T12:57:29.774Z,4.05
2023-03-17T13:01:35.130Z,4.45
2023-03-17T13:05:41.556Z,4.35
2023-03-17T13:09:48.200Z,5.97
2023-03-17T13:14:24.811Z,2.78
2023-03-17T13:18:50.357Z,4.45
2023-03-17T13:23:14.128Z,5.20
2023-03-17T13:27:52.566Z,3.05
2023-03-17T13:32:29.752Z,3.72
2023-03-17T13:36:41.966Z,2.72
2023-03-17T13:41:03.060Z,3.28
2023-03-17T13:45:20.919Z,3.85
2023-03-17T13:49:28.480Z,4.18
2023-03-17T13:53:36.842Z,3.35
2023-03-17T13:57:41.245Z,3.30
2023-03-17T14:01:52.180Z,3.47
2023-03-17T14:06:17.146Z,3.58
2023-03-17T14:10:23.910Z,4.25
2023-03-17T14:14:38.296Z,3.78
2023-03-17T14:18:46.473Z,3.85
2023-03-17T14:22:54.798Z,5.22
2023-03-17T14:26:58.218Z,4.35
2023-03-17T14:31:05.511Z,4.45
2023-03-17T14:35:15.457Z,3.20
2023-03-17T14:39:24.577Z,5.00
2023-03-17T14:43:27.613Z,3.72
2023-03-17T14:47:38.501Z,3.30
2023-03-17T14:51:43.066Z,3.65
2023-03-17T14:55:46.632Z,3.20
2023-03-17T14:59:57.947Z,4.72
2023-03-17T15:04:11.478Z,4.10
2023-03-17T15:08:46.973Z,4.10
2023-03-17T15:12:50.307Z,3.40
2023-03-17T15:16:54.153Z,5.22
2023-03-17T15:21:00.316Z,4.00
2023-03-17T15:25:05.872Z,3.92
2023-03-17T15:29:08.900Z,3.50
2023-03-17T15:33:22.210Z,3.10
2023-03-17T15:37:29.257Z,4.53
2023-03-17T15:41:32.610Z,3.35
2023-03-17T15:45:35.803Z,3.95
2023-03-17T15:49:39.134Z,4.20
2023-03-17T15:53:43.531Z,4.85
2023-03-17T15:57:54.772Z,5.90
2023-03-17T16:01:58.420Z,3.85
2023-03-17T16:06:02.883Z,4.00
2023-03-17T16:10:17.736Z,3.72
2023-03-17T16:14:20.791Z,4.00
2023-03-17T16:18:30.958Z,3.47
2023-03-17T16:22:40.505Z,4.32
2023-03-17T16:26:44.936Z,4.00
2023-03-17T16:30:49.234Z,3.30
2023-03-17T16:34:52.364Z,3.35
2023-03-17T16:38:55.553Z,4.22
2023-03-17T16:43:00.199Z,3.53
2023-03-17T16:47:04.054Z,6.35
2023-03-17T16:51:08.253Z,4.45
2023-03-17T16:55:11.625Z,4.20
2023-03-17T16:59:21.000Z,4.70
2023-03-17T17:03:24.093Z,6.03
2023-03-17T17:07:27.584Z,4.03
2023-03-17T17:11:31.410Z,3.45
2023-03-17T17:15:36.880Z,4.40
2023-03-17T17:19:39.881Z,3.75
2023-03-17T17:23:42.914Z,3.85
2023-03-17T17:27:47.570Z,4.75
2023-03-17T17:31:52.052Z,5.85
2023-03-17T17:35:57.280Z,3.70
2023-03-17T17:40:00.548Z,5.03
2023-03-17T17:44:09.388Z,3.90
2023-03-17T17:48:13.764Z,5.43
2023-03-17T17:52:18.126Z,3.58
2023-03-17T17:56:21.292Z,3.22
2023-03-17T18:00:25.735Z,4.50
2023-03-17T18:04:30.327Z,3.92
2023-03-17T18:08:34.424Z,5.88
2023-03-17T18:12:40.568Z,4.53
2023-03-17T18:16:43.632Z,4.53
2023-03-17T18:20:48.037Z,3.42
2023-03-17T18:24:51.321Z,4.63
2023-03-17T18:28:54.337Z,4.53
2023-03-17T18:33:01.704Z,4.22
2023-03-17T18:37:07.662Z,2.45
2023-03-17T18:41:12.405Z,2.70
2023-03-17T18:45:15.944Z,3.42
2023-03-17T18:49:19.093Z,3.25
2023-03-17T18:53:23.990Z,2.10
2023-03-17T18:57:28.289Z,3.67
2023-03-17T19:01:31.526Z,3.40
2023-03-17T19:05:37.572Z,4.38
2023-03-17T19:09:42.420Z,4.50
2023-03-17T19:13:46.399Z,3.65
2023-03-17T19:17:50.447Z,3.13
2023-03-17T19:21:53.625Z,3.30
2023-03-17T19:25:58.006Z,3.50
2023-03-17T19:30:01.126Z,5.70
2023-03-17T19:34:04.185Z,3.00
2023-03-17T19:38:08.267Z,3.58
2023-03-17T19:42:13.301Z,2.83
2023-03-17T19:46:16.591Z,3.28
2023-03-17T19:50:20.672Z,3.70
2023-03-17T19:54:23.738Z,2.58
2023-03-17T19:58:28.168Z,2.63
2023-03-17T20:02:31.462Z,3.88
2023-03-17T20:06:34.875Z,2.33
2023-03-17T20:10:39.278Z,2.85
2023-03-17T20:14:44.010Z,3.30
2023-03-17T20:18:47.131Z,4.43
2023-03-17T20:22:50.148Z,4.13
2023-03-17T20:26:54.669Z,2.53
2023-03-17T20:31:02.996Z,4.05
2023-03-17T20:35:07.981Z,2.58
2023-03-17T20:39:14.816Z,5.38
2023-03-17T20:43:18.119Z,2.92
2023-03-17T20:47:22.766Z,2.50
2023-03-17T20:51:26.051Z,4.15
2023-03-17T20:55:30.860Z,2.90
2023-03-17T20:59:34.478Z,3.15
2023-03-17T21:03:39.068Z,2.85
2023-03-17T21:07:43.398Z,2.92
2023-03-17T21:11:46.574Z,3.25
2023-03-17T21:15:49.707Z,3.08
2023-03-17T21:19:54.670Z,3.72
2023-03-17T21:23:57.976Z,2.25
2023-03-17T21:28:01.594Z,3.28
2023-03-17T21:32:05.534Z,3.22
2023-03-17T21:36:11.189Z,3.05
2023-03-17T21:40:15.723Z,3.88
2023-03-17T21:44:20.092Z,3.58
2023-03-17T21:48:23.298Z,4.60
2023-03-17T21:52:27.946Z,4.13
2023-03-17T21:56:31.486Z,2.15
2023-03-17T22:00:44.706Z,3.85
2023-03-17T22:04:48.806Z,3.00
2023-03-17T22:08:53.476Z,2.33
2023-03-17T22:12:56.514Z,3.55
2023-03-17T22:16:59.670Z,4.50
2023-03-17T22:21:02.826Z,4.07
2023-03-17T22:25:08.346Z,3.08
2023-03-17T22:29:11.383Z,3.30
2023-03-17T22:33:14.835Z,3.78
2023-03-17T22:37:17.877Z,3.75
2023-03-17T22:41:27.104Z,3.08
2023-03-17T22:45:30.317Z,2.38
2023-03-17T22:49:33.620Z,3.78
2023-03-17T22:53:37.754Z,2.90
2023-03-17T22:57:42.144Z,3.58
2023-03-17T23:01:45.895Z,7.38
2023-03-17T23:05:50.515Z,3.95
2023-03-17T23:09:53.746Z,4.90
2023-03-17T23:13:58.598Z,3.50
2023-03-17T23:18:01.765Z,4.00
2023-03-17T23:22:04.929Z,4.55
2023-03-17T23:26:09.336Z,3.90
2023-03-17T23:30:15.344Z,5.90
2023-03-17T23:34:18.610Z,2.95
2023-03-17T23:38:22.000Z,3.72
2023-03-17T23:42:25.032Z,3.05
2023-03-17T23:46:29.453Z,3.33
2023-03-17T23:50:33.191Z,4.03
2023-03-17T23:54:36.487Z,4.47
2023-03-17T23:58:39.613Z,4.72
